Time;durP1;ratioP1;P1;durP2;ratioP2;P2;SDS_P1;SDS_P2;PMS_P1;PMS_P2;Temp;Humidity;BMP_temperature;BMP_pressure;BME280_temperature;BME280_humidity;BME280_pressure;Samples;Min_cycle;Max_cycle;Signal;HPM_P1;HPM_P2
2022/11/03 00:02:10;;;;;;;23.58;10.57;;;;;;;12.76;54.07;100401.09;5089635;28;20105;-26
2022/11/03 00:04:35;;;;;;;24.17;10.75;;;;;;;12.92;55.85;100405.03;5089495;28;20032;-27
2022/11/03 00:07:01;;;;;;;20.30;11.38;;;;;;;12.47;58.75;100387.44;5089211;28;20062;-25
2022/11/03 00:09:26;;;;;;;21.60;10.60;;;;;;;12.32;58.74;100387.00;5089255;28;20476;-26
2022/11/03 00:11:52;;;;;;;23.67;11.70;;;;;;;12.03;60.98;100390.19;5089542;28;20031;-25
2022/11/03 00:14:18;;;;;;;26.20;11.45;;;;;;;11.90;61.17;100400.97;5089305;28;20067;-24
2022/11/03 00:16:44;;;;;;;28.27;11.00;;;;;;;12.16;59.55;100393.75;5089055;28;20063;-27
2022/11/03 00:19:10;;;;;;;23.33;9.65;;;;;;;12.23;58.94;100413.22;5070296;28;20030;-26
2022/11/03 00:21:36;;;;;;;19.73;10.07;;;;;;;12.20;59.11;100401.09;5089355;28;20024;-26
2022/11/03 00:24:03;;;;;;;23.15;9.65;;;;;;;11.78;61.28;100398.16;5087671;28;20016;-25
2022/11/03 00:26:31;;;;;;;23.00;10.18;;;;;;;12.18;59.45;100386.34;5089101;28;20542;-25
2022/11/03 00:29:01;;;;;;;18.92;10.48;;;;;;;12.36;58.96;100394.38;5089082;28;20415;-25
2022/11/03 00:31:30;;;;;;;20.35;9.30;;;;;;;12.55;58.59;100395.19;5089147;28;20035;-28
2022/11/03 00:33:56;;;;;;;17.33;8.65;;;;;;;12.43;59.42;100389.75;5088901;28;20030;-24
2022/11/03 00:36:24;;;;;;;21.40;8.93;;;;;;;12.64;57.89;100407.19;5088757;28;20068;-28
2022/11/03 00:38:50;;;;;;;20.23;9.10;;;;;;;12.79;57.02;100412.19;5088934;28;20502;-26
2022/11/03 00:41:16;;;;;;;19.55;9.45;;;;;;;12.64;56.08;100393.81;5089186;28;20063;-25
2022/11/03 00:43:42;;;;;;;18.67;8.20;;;;;;;12.66;56.62;100402.44;5088833;28;20115;-26
2022/11/03 00:46:08;;;;;;;21.48;9.63;;;;;;;12.82;56.06;100419.75;5088991;28;20058;-25
2022/11/03 00:48:35;;;;;;;21.27;10.20;;;;;;;12.95;55.70;100412.59;5088439;28;20028;-27
2022/11/03 00:51:11;;;;;;;18.65;10.68;;;;;;;12.96;55.56;100419.59;5070522;28;20504;-25
2022/11/03 00:53:38;;;;;;;21.63;11.85;;;;;;;12.88;56.46;100418.03;5088634;28;20115;-28
2022/11/03 00:56:05;;;;;;;19.13;10.85;;;;;;;12.93;55.78;100414.69;5088623;28;20139;-27
2022/11/03 00:58:31;;;;;;;27.10;11.70;;;;;;;13.16;54.32;100422.00;5088343;28;20048;-27
2022/11/03 01:01:00;;;;;;;23.15;10.85;;;;;;;13.12;54.40;100402.06;5088186;28;20066;-26
2022/11/03 01:03:26;;;;;;;20.63;10.50;;;;;;;13.07;54.76;100408.09;5069979;28;20063;-26
2022/11/03 01:08:36;;;;;;;21.88;10.40;;;;;;;12.96;55.17;100366.06;5088349;28;20037;-25
2022/11/03 01:14:08;;;;;;;23.05;11.13;;;;;;;13.23;54.15;100386.03;5088383;28;20089;-24
2022/11/03 01:16:34;;;;;;;22.35;10.50;;;;;;;13.14;54.75;100398.13;5087788;28;20035;-26
2022/11/03 01:18:59;;;;;;;19.90;9.88;;;;;;;12.99;56.17;100397.72;5088240;28;20028;-27
2022/11/03 01:21:25;;;;;;;20.00;9.88;;;;;;;13.07;56.73;100378.66;5069789;28;20032;-25
2022/11/03 01:23:50;;;;;;;20.88;9.25;;;;;;;13.12;57.07;100407.41;5088177;28;20249;-28
2022/11/03 01:26:16;;;;;;;17.23;8.80;;;;;;;12.65;57.96;100397.31;5087790;28;20032;-25
2022/11/03 01:28:44;;;;;;;19.92;9.50;;;;;;;12.70;59.41;100391.28;5087791;28;20032;-26
2022/11/03 01:31:12;;;;;;;;;;;;;;;12.52;59.55;100405.50;5088534;28;20032;-26
2022/11/03 01:33:39;;;;;;;24.00;10.15;;;;;;;12.32;59.40;100397.69;5087981;28;19911;-24
2022/11/03 01:36:04;;;;;;;20.23;11.10;;;;;;;12.33;59.71;100416.19;5087812;28;20024;-28
2022/11/03 01:38:31;;;;;;;23.10;10.93;;;;;;;12.15;60.56;100408.16;5087963;28;20043;-29
2022/11/03 01:40:57;;;;;;;18.05;9.75;;;;;;;12.15;60.53;100413.50;5087390;28;20070;-25
2022/11/03 01:43:25;;;;;;;21.65;11.20;;;;;;;12.30;59.71;100419.31;5087168;28;20052;-27
2022/11/03 01:45:56;;;;;;;20.13;11.47;;;;;;;11.91;62.48;100407.97;5087501;28;20028;-29
2022/11/03 01:48:23;;;;;;;24.85;10.45;;;;;;;11.86;60.18;100399.75;5088003;28;20552;-27
2022/11/03 01:50:50;;;;;;;24.80;10.18;;;;;;;11.66;60.73;100406.06;5087797;28;20035;-24
2022/11/03 01:53:16;;;;;;;25.83;11.07;;;;;;;11.64;60.42;100410.00;5087641;28;20023;-26
2022/11/03 01:55:43;;;;;;;20.75;10.98;;;;;;;11.96;59.92;100416.13;5087472;28;20389;-25
2022/11/03 01:58:18;;;;;;;19.83;10.02;;;;;;;12.17;59.20;100430.94;5087561;28;20058;-28
2022/11/03 02:00:47;;;;;;;21.45;10.70;;;;;;;12.30;58.44;100419.31;5087432;28;20106;-25
2022/11/03 02:03:13;;;;;;;23.83;10.57;;;;;;;12.43;58.46;100427.19;5087251;28;20123;-29
2022/11/03 02:05:42;;;;;;;23.33;10.10;;;;;;;12.36;58.76;100420.28;5087221;28;20127;-27
2022/11/03 02:08:30;;;;;;;22.98;9.73;;;;;;;12.25;59.25;100419.16;5087233;28;20438;-25
2022/11/03 02:10:56;;;;;;;19.10;9.23;;;;;;;12.36;58.11;100405.06;5087077;28;20819;-27
2022/11/03 02:13:24;;;;;;;17.88;9.07;;;;;;;12.43;57.92;100400.44;5087276;28;20032;-26
2022/11/03 02:15:54;;;;;;;23.92;8.95;;;;;;;12.48;57.86;100412.34;5087387;28;20099;-25
2022/11/03 02:18:24;;;;;;;21.98;9.48;;;;;;;12.61;58.00;100423.72;5068760;28;20510;-25
2022/11/03 02:21:07;;;;;;;19.52;8.60;;;;;;;12.58;56.78;100401.94;5087506;28;20035;-29
2022/11/03 02:23:50;;;;;;;37.13;9.95;;;;;;;12.42;57.45;100398.81;5087641;28;20020;-29
2022/11/03 02:26:16;;;;;;;29.67;8.98;;;;;;;12.39;59.54;100417.16;5086890;28;20032;-29
2022/11/03 02:28:41;;;;;;;24.30;8.18;;;;;;;12.68;58.12;100426.31;5087169;28;20545;-27
2022/11/03 02:31:12;;;;;;;22.50;8.65;;;;;;;12.73;57.10;100429.13;5068717;28;20453;-26
2022/11/03 02:33:51;;;;;;;19.35;8.02;;;;;;;12.73;56.58;100423.78;5087618;28;20065;-29
2022/11/03 02:36:33;;;;;;;18.90;8.15;;;;;;;12.75;57.54;100411.00;5087012;28;20476;-26
2022/11/03 02:39:11;;;;;;;20.65;7.97;;;;;;;12.54;59.50;100419.47;5087357;28;20028;-25
2022/11/03 02:41:37;;;;;;;;;;;;;;;12.24;60.05;100428.22;5087267;28;20035;-27
2022/11/03 02:44:12;;;;;;;21.75;10.07;;;;;;;12.43;59.94;100415.69;5087145;28;20435;-28
2022/11/03 02:46:42;;;;;;;25.98;11.88;;;;;;;12.14;60.58;100439.41;5086824;28;20020;-25
2022/11/03 02:49:07;;;;;;;21.70;11.23;;;;;;;11.98;61.13;100411.38;5086835;28;20519;-29
2022/11/03 02:51:33;;;;;;;21.50;10.52;;;;;;;12.34;59.95;100427.69;5086759;28;20020;-26
2022/11/03 02:54:27;;;;;;;19.33;9.32;;;;;;;12.15;61.23;100418.84;5086709;28;20036;-25
2022/11/03 02:56:58;;;;;;;21.92;9.70;;;;;;;11.93;61.24;100439.81;5089910;28;20156;-28
2022/11/03 02:59:28;;;;;;;18.92;9.50;;;;;;;12.14;60.58;100433.25;5091052;28;20028;-26
2022/11/03 03:02:08;;;;;;;20.77;10.27;;;;;;;12.61;59.42;100429.06;5091010;28;20032;-26
2022/11/03 03:04:40;;;;;;;19.85;9.68;;;;;;;12.42;59.47;100428.25;5090676;28;20092;-25
2022/11/03 03:07:12;;;;;;;20.48;9.07;;;;;;;12.43;60.61;100451.25;5071865;28;20056;-26
2022/11/03 03:09:45;;;;;;;22.35;9.80;;;;;;;12.14;61.51;100449.31;5090691;28;20028;-26
2022/11/03 03:12:15;;;;;;;21.52;10.02;;;;;;;12.01;62.28;100442.19;5090590;28;20028;-26
2022/11/03 03:14:44;;;;;;;19.02;10.02;;;;;;;12.10;62.01;100442.75;5071944;28;20055;-28
2022/11/03 03:17:22;;;;;;;22.67;9.90;;;;;;;12.20;60.32;100451.09;5090850;28;20030;-25
2022/11/03 03:20:12;;;;;;;20.92;9.07;;;;;;;12.22;60.60;100452.50;5072390;28;20039;-27
2022/11/03 03:22:54;;;;;;;20.63;8.95;;;;;;;12.26;59.89;100428.81;5090149;28;20078;-26
2022/11/03 03:25:28;;;;;;;22.52;10.07;;;;;;;12.08;60.50;100428.78;5090235;28;20064;-26
2022/11/03 03:28:07;;;;;;;27.83;10.23;;;;;;;11.82;61.54;100442.13;5090312;28;20032;-25
2022/11/03 03:30:35;;;;;;;22.33;10.25;;;;;;;12.02;61.18;100460.69;5090053;28;20503;-28
2022/11/03 03:33:02;;;;;;;22.33;9.98;;;;;;;12.36;60.04;100461.22;5090178;28;20182;-26
2022/11/03 03:35:30;;;;;;;19.00;9.73;;;;;;;12.14;60.54;100460.00;5071478;28;20122;-27
2022/11/03 03:38:00;;;;;;;22.88;10.82;;;;;;;12.19;60.58;100452.13;5089973;28;20055;-28
2022/11/03 03:40:31;;;;;;;17.73;10.00;;;;;;;12.37;60.85;100464.72;5071417;28;20044;-27
2022/11/03 03:42:57;;;;;;;17.55;9.52;;;;;;;12.19;61.72;100466.31;5071731;28;20115;-27
2022/11/03 03:45:25;;;;;;;19.10;8.82;;;;;;;12.45;61.02;100457.22;5089780;28;20045;-25
2022/11/03 03:47:50;;;;;;;21.50;9.70;;;;;;;12.33;60.72;100464.31;5089979;28;20020;-26
2022/11/03 03:50:17;;;;;;;17.52;8.82;;;;;;;12.54;60.66;100470.28;5089900;28;20034;-25
2022/11/03 03:52:42;;;;;;;17.70;7.70;;;;;;;12.60;59.69;100470.22;5089668;28;20072;-28
2022/11/03 03:55:16;;;;;;;19.52;9.52;;;;;;;12.42;61.89;100449.66;5089722;28;20064;-25
2022/11/03 03:57:42;;;;;;;18.75;9.23;;;;;;;12.29;60.57;100456.97;5089700;28;20028;-25
2022/11/03 04:00:11;;;;;;;63.20;13.25;;;;;;;12.52;59.62;100461.69;5089997;28;20031;-25
2022/11/03 04:02:37;;;;;;;32.47;10.00;;;;;;;12.16;61.24;100448.03;5089468;28;20044;-26
2022/11/03 04:05:02;;;;;;;37.85;10.05;;;;;;;12.39;61.57;100468.78;5088159;28;20153;-27
2022/11/03 04:07:45;;;;;;;21.65;8.27;;;;;;;12.31;60.26;100463.72;5088564;28;20052;-26
2022/11/03 04:10:13;;;;;;;18.35;9.00;;;;;;;12.33;59.65;100469.69;5089529;28;20067;-28
2022/11/03 04:23:39;;;;;;;22.38;9.73;;;;;;;12.02;60.51;100484.75;5089238;28;20198;-25
2022/11/03 04:26:11;;;;;;;53.92;12.45;;;;;;;12.10;61.01;100469.50;5089234;28;20531;-28
2022/11/03 04:28:37;;;;;;;26.15;10.55;;;;;;;12.38;60.67;100475.19;5089032;28;20130;-26
2022/11/03 04:31:05;;;;;;;23.05;10.68;;;;;;;12.44;60.07;100465.44;5070752;28;20123;-27
2022/11/03 04:33:30;;;;;;;;;;;;;;;11.95;61.69;100481.34;5089442;28;20024;-25
2022/11/03 04:35:58;;;;;;;21.60;10.02;;;;;;;11.63;61.86;100470.63;5088695;28;19938;-25
2022/11/03 04:38:25;;;;;;;27.80;10.82;;;;;;;11.37;64.17;100482.28;5070594;28;20434;-26
2022/11/03 04:40:58;;;;;;;24.17;11.45;;;;;;;11.79;62.27;100481.81;5089051;28;20065;-24
2022/11/03 04:43:35;;;;;;;19.65;9.63;;;;;;;12.03;60.48;100486.41;5089028;28;20046;-25
2022/11/03 04:46:01;;;;;;;17.20;8.68;;;;;;;12.06;59.49;100491.31;5088810;28;20024;-26
2022/11/03 04:48:28;;;;;;;24.23;10.90;;;;;;;11.22;62.93;100479.09;5088436;28;20047;-26
2022/11/03 04:50:57;;;;;;;27.70;10.57;;;;;;;11.76;60.19;100507.13;5070535;28;20483;-25
2022/11/03 04:53:23;;;;;;;18.40;8.55;;;;;;;11.94;59.36;100509.09;5088577;28;20040;-31
2022/11/03 04:55:51;;;;;;;23.40;9.38;;;;;;;11.63;59.55;100513.38;5088620;28;20036;-26
2022/11/03 04:58:19;;;;;;;;;;;;;;;11.45;60.60;100507.91;5070376;28;20126;-26
2022/11/03 05:00:45;;;;;;;19.25;8.90;;;;;;;11.68;59.81;100498.53;5088504;28;19999;-27
2022/11/03 05:03:15;;;;;;;26.88;8.88;;;;;;;11.78;58.58;100514.91;5088140;28;20034;-28
2022/11/03 05:05:41;;;;;;;21.27;8.43;;;;;;;11.94;58.39;100498.38;5088462;28;20047;-26
2022/11/03 05:08:08;;;;;;;20.52;9.45;;;;;;;12.20;57.29;100508.06;5088126;28;20039;-26
2022/11/03 05:10:34;;;;;;;21.83;7.65;;;;;;;12.33;57.02;100507.13;5088169;28;20039;-25
2022/11/03 05:13:00;;;;;;;22.67;7.93;;;;;;;12.28;57.39;100512.31;5069848;28;20039;-27
2022/11/03 05:15:36;;;;;;;21.15;8.45;;;;;;;12.49;57.08;100518.31;5087995;28;20039;-25
2022/11/03 05:18:20;;;;;;;22.27;8.55;;;;;;;12.32;57.87;100532.25;5086641;28;20122;-25
2022/11/03 05:21:01;;;;;;;31.10;9.32;;;;;;;12.15;58.69;100523.13;5088316;28;20119;-27
2022/11/03 05:23:35;;;;;;;23.88;8.30;;;;;;;12.20;58.29;100516.09;5087909;28;20077;-25
2022/11/03 05:26:01;;;;;;;17.15;7.93;;;;;;;12.30;57.94;100539.66;5069563;28;20055;-28
2022/11/03 05:28:31;;;;;;;20.17;8.20;;;;;;;12.45;59.04;100545.47;5088018;28;20103;-27
2022/11/03 05:30:56;;;;;;;31.65;9.70;;;;;;;12.29;58.22;100546.03;5088160;28;20037;-28
2022/11/03 05:33:27;;;;;;;21.98;8.50;;;;;;;12.25;60.09;100553.66;5069582;28;20032;-29
2022/11/03 05:35:53;;;;;;;18.25;8.35;;;;;;;12.10;59.94;100565.75;5087938;28;20113;-28
2022/11/03 05:38:21;;;;;;;23.77;10.15;;;;;;;11.92;59.48;100564.59;5087607;28;20032;-28
2022/11/03 05:40:51;;;;;;;20.70;8.98;;;;;;;11.74;59.35;100561.81;5087978;28;20024;-28
2022/11/03 05:43:18;;;;;;;20.73;8.73;;;;;;;11.98;59.04;100555.72;5087659;28;20528;-25
2022/11/03 05:45:44;;;;;;;21.27;8.18;;;;;;;11.86;59.49;100555.56;5087779;28;20035;-26
2022/11/03 05:48:38;;;;;;;18.60;8.20;;;;;;;12.09;59.71;100588.16;5069356;28;20089;-26
2022/11/03 05:51:20;;;;;;;16.33;7.30;;;;;;;12.09;58.52;100585.47;5084519;28;20050;-25
2022/11/03 05:53:49;;;;;;;21.35;7.47;;;;;;;12.14;58.73;100572.28;5069274;28;20024;-27
2022/11/03 05:56:20;;;;;;;21.98;7.80;;;;;;;12.17;58.51;100587.88;5087295;28;20060;-29
2022/11/03 05:58:47;;;;;;;17.92;7.78;;;;;;;11.78;59.32;100573.69;5069470;28;20049;-25
2022/11/03 06:01:30;;;;;;;16.05;7.55;;;;;;;12.18;59.29;100605.59;5069172;28;20178;-27
2022/11/03 06:03:58;;;;;;;13.52;6.82;;;;;;;12.50;58.92;100610.88;5086153;28;20044;-25
2022/11/03 06:06:28;;;;;;;18.85;7.97;;;;;;;12.17;61.27;100610.09;5087295;28;20047;-25
2022/11/03 06:08:55;;;;;;;17.77;8.32;;;;;;;12.17;61.17;100609.28;5087441;28;20132;-28
2022/11/03 06:11:27;;;;;;;16.25;7.85;;;;;;;12.23;60.75;100613.75;5087601;28;20032;-26
2022/11/03 06:13:55;;;;;;;19.08;8.98;;;;;;;12.55;59.83;100627.13;5087018;28;20515;-27
2022/11/03 06:16:30;;;;;;;15.80;9.20;;;;;;;12.62;59.60;100630.53;5087031;28;20732;-29
2022/11/03 06:18:55;;;;;;;23.52;10.57;;;;;;;12.45;60.10;100604.34;5085832;28;20543;-25
2022/11/03 06:21:24;;;;;;;19.35;9.50;;;;;;;12.64;59.96;100626.59;5069058;28;20118;-27
2022/11/03 06:23:51;;;;;;;18.77;9.73;;;;;;;12.91;60.38;100646.97;5087022;28;20480;-25
2022/11/03 06:26:19;;;;;;;20.13;11.20;;;;;;;13.14;60.19;100655.22;5086722;28;20043;-28
2022/11/03 06:28:46;;;;;;;;;;;;;;;13.31;59.96;100655.47;5069488;28;20122;-25
2022/11/03 06:31:23;;;;;;;25.05;13.32;;;;;;;13.51;60.35;100635.69;5086729;28;19908;-27
2022/11/03 06:33:49;;;;;;;29.25;14.23;;;;;;;14.07;59.24;100640.72;5069124;28;20034;-25
2022/11/03 06:36:18;;;;;;;27.23;14.68;;;;;;;14.64;58.13;100644.84;5086942;28;20132;-26
2022/11/03 06:38:49;;;;;;;26.35;15.40;;;;;;;15.26;56.64;100664.03;5087098;28;20028;-26
2022/11/03 06:41:28;;;;;;;28.65;16.77;;;;;;;15.60;55.28;100642.69;5086883;28;20026;-26
2022/11/03 06:43:54;;;;;;;31.73;15.75;;;;;;;16.16;54.14;100666.38;5086877;28;20031;-25
2022/11/03 06:46:27;;;;;;;26.45;15.77;;;;;;;16.33;53.01;100653.78;5068381;28;20085;-27
2022/11/03 06:48:56;;;;;;;27.05;15.93;;;;;;;16.54;52.13;100654.94;5085272;28;20558;-28
2022/11/03 06:51:25;;;;;;;27.40;15.57;;;;;;;16.88;50.44;100657.66;5086728;28;20040;-30
2022/11/03 06:53:52;;;;;;;29.27;16.38;;;;;;;17.13;50.65;100680.66;5068804;28;20565;-29
2022/11/03 06:56:22;;;;;;;25.63;16.50;;;;;;;17.39;51.17;100679.16;5086736;28;20130;-30
2022/11/03 06:58:51;;;;;;;29.27;15.98;;;;;;;17.22;51.69;100658.44;5087008;28;20715;-26
2022/11/03 07:01:34;;;;;;;25.17;16.30;;;;;;;17.21;51.02;100650.59;5086889;28;20020;-26
2022/11/03 07:04:13;;;;;;;33.05;15.25;;;;;;;17.76;49.76;100662.34;5086688;28;20032;-26
2022/11/03 07:06:39;;;;;;;23.80;13.88;;;;;;;18.19;47.79;100671.47;5086427;28;20044;-25
2022/11/03 07:09:12;;;;;;;25.33;13.90;;;;;;;18.22;47.15;100662.84;5086816;28;20020;-26
2022/11/03 07:11:45;;;;;;;20.38;13.75;;;;;;;18.16;48.39;100671.97;5086961;28;20039;-26
2022/11/03 07:14:16;;;;;;;26.73;14.77;;;;;;;18.18;48.60;100650.94;5085302;28;20097;-26
2022/11/03 07:17:04;;;;;;;29.15;14.45;;;;;;;18.46;48.38;100669.56;5087211;28;20035;-26
2022/11/03 07:19:35;;;;;;;27.42;14.05;;;;;;;18.37;48.16;100681.91;5086741;28;20491;-25
2022/11/03 07:22:08;;;;;;;25.08;14.00;;;;;;;18.51;47.84;100678.78;5086795;28;20035;-27
2022/11/03 07:24:37;;;;;;;22.70;12.93;;;;;;;18.61;45.90;100665.38;5084762;28;20071;-29
2022/11/03 07:27:15;;;;;;;23.27;13.48;;;;;;;18.80;45.39;100666.66;5086387;28;20509;-27
2022/11/03 07:29:42;;;;;;;22.17;12.00;;;;;;;18.93;44.54;100657.28;5086591;28;20056;-26
2022/11/03 07:32:39;;;;;;;22.98;12.57;;;;;;;19.10;44.23;100670.63;5086627;28;20043;-25
2022/11/03 07:35:23;;;;;;;20.38;11.05;;;;;;;19.25;43.08;100684.25;5083008;28;20063;-25
2022/11/03 07:37:51;;;;;;;20.88;11.80;;;;;;;18.91;42.78;100693.75;5086558;28;20040;-29
2022/11/03 07:40:23;;;;;;;22.55;12.68;;;;;;;19.17;44.13;100683.94;5085022;28;20063;-27
2022/11/03 07:42:49;;;;;;;21.95;12.23;;;;;;;19.22;43.51;100668.53;5088505;28;20047;-26
2022/11/03 07:45:41;;;;;;;19.88;11.45;;;;;;;19.54;42.12;100685.75;5071908;28;20043;-27
2022/11/03 07:48:35;;;;;;;17.65;9.55;;;;;;;19.51;41.28;100683.56;5090029;28;20039;-28
2022/11/03 07:51:15;;;;;;;18.13;10.32;;;;;;;19.79;39.42;100676.94;5081184;28;20028;-28
2022/11/03 07:53:44;;;;;;;17.13;11.15;;;;;;;19.58;40.10;100676.84;5089653;28;20028;-26
2022/11/03 07:56:17;;;;;;;17.70;9.43;;;;;;;19.89;40.84;100666.16;5089328;28;20056;-29
2022/11/03 07:58:43;;;;;;;15.60;8.73;;;;;;;19.79;39.70;100666.13;5088318;28;20035;-26
2022/11/03 08:01:30;;;;;;;20.08;8.20;;;;;;;19.59;39.49;100654.09;5089768;28;20024;-26
2022/11/03 08:03:59;;;;;;;16.75;8.63;;;;;;;19.91;39.34;100653.16;5089654;28;20035;-27
2022/11/03 08:06:25;;;;;;;16.60;8.70;;;;;;;20.21;37.99;100644.28;5088643;28;20044;-27
2022/11/03 08:08:50;;;;;;;16.83;9.00;;;;;;;20.29;38.56;100659.22;5071446;28;20020;-27
2022/11/03 08:11:16;;;;;;;14.70;7.85;;;;;;;20.34;38.38;100671.94;5089543;28;20142;-26
2022/11/03 08:13:41;;;;;;;15.73;7.93;;;;;;;20.30;39.29;100649.97;5070958;28;20081;-27
2022/11/03 08:16:07;;;;;;;15.75;8.73;;;;;;;20.49;38.82;100669.22;5070812;28;20138;-29
2022/11/03 08:18:33;;;;;;;17.40;8.15;;;;;;;20.46;38.60;100670.59;5088859;28;20508;-27
2022/11/03 08:20:58;;;;;;;16.65;8.25;;;;;;;20.45;39.73;100657.28;5089021;28;20038;-28
2022/11/03 08:23:23;;;;;;;17.55;8.15;;;;;;;20.61;38.72;100650.81;5089221;28;20028;-25
2022/11/03 08:25:49;;;;;;;14.30;8.55;;;;;;;20.98;38.39;100654.31;5089314;28;20036;-29
2022/11/03 08:28:14;;;;;;;18.55;8.50;;;;;;;21.23;37.41;100673.25;5089119;28;20106;-31
2022/11/03 08:30:40;;;;;;;18.00;9.18;;;;;;;21.11;37.41;100669.22;5088913;28;20035;-30
2022/11/03 08:33:05;;;;;;;16.63;7.88;;;;;;;21.01;37.88;100659.22;5070820;28;20024;-27
2022/11/03 08:35:31;;;;;;;16.35;8.00;;;;;;;21.18;37.11;100659.69;5088630;28;20035;-27
2022/11/03 08:37:56;;;;;;;15.98;7.85;;;;;;;21.19;38.32;100672.19;5089166;28;20024;-26
2022/11/03 08:40:22;;;;;;;16.38;8.48;;;;;;;21.22;36.44;100659.97;5088732;28;20035;-26
2022/11/03 08:42:48;;;;;;;15.13;8.00;;;;;;;21.09;36.72;100661.38;5089031;28;20090;-26
2022/11/03 08:45:15;;;;;;;11.60;7.53;;;;;;;21.11;37.41;100671.94;5070452;28;20119;-26
2022/11/03 08:47:40;;;;;;;19.33;8.70;;;;;;;21.07;37.21;100672.47;5088658;28;20024;-27
2022/11/03 08:50:06;;;;;;;13.00;8.50;;;;;;;21.13;37.14;100667.84;5088359;28;20032;-31
2022/11/03 08:52:31;;;;;;;20.30;8.43;;;;;;;21.36;37.45;100676.47;5087921;28;20679;-27
2022/11/03 08:54:57;;;;;;;16.73;7.88;;;;;;;21.41;36.80;100657.47;5088298;28;20392;-27
2022/11/03 08:57:22;;;;;;;16.42;8.18;;;;;;;21.46;37.21;100668.34;5088427;28;20028;-25
2022/11/03 08:59:48;;;;;;;16.52;9.35;;;;;;;21.24;36.69;100674.88;5088419;28;20115;-26
2022/11/03 09:02:13;;;;;;;13.40;8.35;;;;;;;21.46;36.50;100668.34;5088741;28;20037;-28
2022/11/03 09:04:38;;;;;;;15.45;8.75;;;;;;;21.61;36.54;100679.13;5088057;28;20038;-28
2022/11/03 09:07:04;;;;;;;19.35;8.20;;;;;;;21.43;36.62;100669.72;5077535;28;20056;-28
2022/11/03 09:09:29;;;;;;;18.77;8.35;;;;;;;21.44;36.33;100662.38;5068988;28;20020;-28
2022/11/03 09:11:55;;;;;;;15.32;8.63;;;;;;;21.95;36.53;100667.56;5088007;28;20032;-28
2022/11/03 09:14:20;;;;;;;16.85;8.07;;;;;;;21.87;35.44;100663.53;5087805;28;20028;-28
2022/11/03 09:16:46;;;;;;;15.23;8.10;;;;;;;22.31;36.91;100653.78;5087788;28;20072;-28
2022/11/03 09:19:11;;;;;;;15.75;8.52;;;;;;;22.07;35.09;100657.19;5088018;28;20119;-30
2022/11/03 09:21:36;;;;;;;21.65;8.65;;;;;;;22.32;34.79;100647.25;5087486;28;20113;-28
2022/11/03 09:24:02;;;;;;;12.52;8.32;;;;;;;22.41;34.86;100631.97;5087690;28;20032;-29
2022/11/03 09:26:27;;;;;;;15.65;7.47;;;;;;;22.48;35.02;100647.16;5088159;28;20036;-26
2022/11/03 09:28:53;;;;;;;13.05;7.43;;;;;;;22.33;35.29;100646.19;5087741;28;20097;-27
2022/11/03 09:31:19;;;;;;;13.68;7.70;;;;;;;22.42;34.91;100628.16;5087872;28;20119;-29
2022/11/03 09:33:44;;;;;;;15.43;7.75;;;;;;;22.67;35.25;100640.72;5087676;28;20109;-28
2022/11/03 09:36:10;;;;;;;15.77;7.53;;;;;;;22.53;35.16;100638.94;5087389;28;20109;-28
2022/11/03 09:38:35;;;;;;;11.90;7.18;;;;;;;22.60;35.23;100628.56;5087333;28;20020;-27
2022/11/03 09:41:03;;;;;;;14.55;8.20;;;;;;;22.89;34.63;100619.59;5087527;28;20581;-28
2022/11/03 09:43:30;;;;;;;;;;;;;;;22.84;35.14;100628.59;5088444;28;20488;-29
2022/11/03 09:45:55;;;;;;;17.57;7.97;;;;;;;22.90;34.48;100618.47;5087579;28;19908;-26
2022/11/03 09:48:21;;;;;;;14.32;7.60;;;;;;;22.81;35.11;100618.31;5068890;28;20526;-29
2022/11/03 09:50:52;;;;;;;13.73;7.78;;;;;;;22.92;34.98;100606.19;5087143;28;20069;-28
2022/11/03 09:53:19;;;;;;;11.52;7.50;;;;;;;23.01;34.80;100611.84;5069292;28;20020;-27
2022/11/03 09:55:44;;;;;;;14.40;8.25;;;;;;;23.16;35.02;100608.97;5087420;28;20028;-26
2022/11/03 09:58:15;;;;;;;14.93;7.50;;;;;;;22.93;35.12;100609.75;5087438;28;20016;-29
2022/11/03 10:00:41;;;;;;;14.25;7.35;;;;;;;23.21;34.78;100605.38;5087342;28;20742;-27
2022/11/03 10:03:15;;;;;;;16.80;7.65;;;;;;;23.55;34.43;100588.06;5086611;28;20032;-32
2022/11/03 10:05:43;;;;;;;18.33;8.18;;;;;;;23.97;34.18;100592.69;5086545;28;20135;-31
2022/11/03 10:08:27;;;;;;;15.30;7.65;;;;;;;24.24;34.29;100600.16;5087271;28;20077;-26
2022/11/03 10:10:53;;;;;;;13.65;8.52;;;;;;;24.38;33.06;100599.41;5087329;28;20062;-28
2022/11/03 10:13:36;;;;;;;13.38;7.28;;;;;;;24.52;32.98;100588.53;5087221;28;20107;-29
2022/11/03 10:16:05;;;;;;;17.90;6.78;;;;;;;24.46;32.74;100579.63;5087217;28;20036;-30
2022/11/03 10:18:33;;;;;;;14.95;8.43;;;;;;;23.97;33.87;100589.97;5086746;28;20039;-28
2022/11/03 10:21:04;;;;;;;17.92;8.43;;;;;;;23.60;33.94;100575.22;5087031;28;20032;-30
2022/11/03 10:23:29;;;;;;;12.50;6.97;;;;;;;23.17;34.47;100572.50;5068769;28;20114;-28
2022/11/03 10:26:07;;;;;;;15.48;7.53;;;;;;;23.43;34.66;100564.81;5086823;28;20044;-28
2022/11/03 10:28:32;;;;;;;16.35;8.10;;;;;;;23.07;34.41;100572.63;5087142;28;20031;-27
2022/11/03 10:31:00;;;;;;;18.52;7.65;;;;;;;22.83;35.02;100550.84;5087003;28;20031;-28
2022/11/03 10:33:37;;;;;;;17.50;8.02;;;;;;;22.81;35.05;100556.56;5086994;28;20024;-28
2022/11/03 10:36:04;;;;;;;17.45;8.32;;;;;;;22.86;35.02;100544.81;5086622;28;20089;-35
2022/11/03 10:38:35;;;;;;;16.90;7.82;;;;;;;22.72;35.26;100522.13;5086419;28;20031;-28
2022/11/03 10:41:14;;;;;;;15.30;7.93;;;;;;;22.84;35.04;100547.00;5068675;28;20485;-31
2022/11/03 10:43:57;;;;;;;16.38;7.80;;;;;;;23.13;35.10;100544.28;5086836;28;20030;-28
2022/11/03 10:46:23;;;;;;;14.65;7.00;;;;;;;23.45;34.71;100526.41;5086686;28;20043;-27
2022/11/03 10:49:05;;;;;;;15.25;8.15;;;;;;;23.85;34.38;100540.56;5086821;28;20032;-30
2022/11/03 10:51:33;;;;;;;16.80;7.45;;;;;;;24.13;33.13;100544.22;5086569;28;20028;-27
2022/11/03 10:54:00;;;;;;;13.77;7.70;;;;;;;24.10;33.10;100527.66;5068501;28;20385;-27
2022/11/03 10:56:26;;;;;;;15.77;7.75;;;;;;;24.57;33.28;100532.00;5067836;28;20502;-27
2022/11/03 10:58:52;;;;;;;14.65;7.57;;;;;;;25.18;31.88;100513.59;5086504;28;20500;-27
2022/11/03 11:01:17;;;;;;;12.98;6.90;;;;;;;24.96;31.41;100506.13;5086430;28;20040;-30
2022/11/03 11:03:44;;;;;;;17.67;8.80;;;;;;;24.81;32.60;100525.56;5086512;28;20466;-28
2022/11/03 11:06:39;;;;;;;13.15;7.50;;;;;;;25.43;32.56;100522.38;5086369;28;20511;-29
2022/11/03 11:09:05;;;;;;;19.38;7.38;;;;;;;24.88;31.86;100512.31;5077225;28;20040;-28
2022/11/03 11:11:30;;;;;;;13.35;6.85;;;;;;;25.35;31.22;100495.78;5086544;28;20050;-27
2022/11/03 11:14:27;;;;;;;17.52;7.65;;;;;;;25.81;31.28;100508.38;5086470;28;20476;-30
2022/11/03 11:16:54;;;;;;;16.92;7.75;;;;;;;25.77;31.29;100501.94;5088394;28;20032;-31
2022/11/03 11:19:21;;;;;;;14.45;6.97;;;;;;;25.73;30.69;100490.00;5090629;28;20027;-28
2022/11/03 11:21:46;;;;;;;14.70;6.90;;;;;;;26.08;31.39;100491.06;5090235;28;20089;-27
2022/11/03 11:24:12;;;;;;;14.32;7.90;;;;;;;25.81;30.25;100492.00;5090240;28;20023;-29
2022/11/03 11:26:39;;;;;;;12.30;6.70;;;;;;;26.48;29.14;100490.28;5089988;28;20028;-28
2022/11/03 11:29:12;;;;;;;13.25;6.70;;;;;;;26.44;28.94;100492.84;5090198;28;20032;-29
2022/11/03 11:31:38;;;;;;;15.93;7.00;;;;;;;26.08;28.88;100484.78;5090167;28;20049;-28
2022/11/03 11:34:15;;;;;;;11.18;6.93;;;;;;;25.33;29.47;100485.16;5090196;28;20886;-28
2022/11/03 11:36:56;;;;;;;14.88;7.70;;;;;;;26.01;29.50;100475.13;5089944;28;20031;-28
2022/11/03 11:39:27;;;;;;;13.45;7.30;;;;;;;26.12;28.73;100480.31;5090108;28;20024;-31
2022/11/03 11:42:20;;;;;;;12.43;6.85;;;;;;;26.00;28.45;100472.69;5090055;28;20491;-28
2022/11/03 11:44:57;;;;;;;15.63;8.32;;;;;;;25.69;29.37;100448.03;5089844;28;20035;-27
2022/11/03 11:47:22;;;;;;;16.63;7.80;;;;;;;26.09;29.64;100464.53;5071137;28;20028;-28